sensor_id;sensor_type;location;lat;lon;timestamp;P1;durP1;ratioP1;P2;durP2;ratioP2
34725;SDS011;20951;50.818;4.344;2024-02-28T00:00:27;27.70;;;15.82;;
34725;SDS011;20951;50.818;4.344;2024-02-28T00:02:53;24.67;;;15.77;;
34725;SDS011;20951;50.818;4.344;2024-02-28T00:05:19;30.77;;;16.17;;
34725;SDS011;20951;50.818;4.344;2024-02-28T00:07:44;24.60;;;15.63;;
34725;SDS011;20951;50.818;4.344;2024-02-28T00:10:12;28.00;;;16.13;;
34725;SDS011;20951;50.818;4.344;2024-02-28T00:12:38;26.60;;;15.93;;
34725;SDS011;20951;50.818;4.344;2024-02-28T00:15:07;31.35;;;17.63;;
34725;SDS011;20951;50.818;4.344;2024-02-28T00:17:38;24.35;;;17.02;;
34725;SDS011;20951;50.818;4.344;2024-02-28T00:20:07;30.48;;;18.92;;
34725;SDS011;20951;50.818;4.344;2024-02-28T00:22:37;30.85;;;19.40;;
34725;SDS011;20951;50.818;4.344;2024-02-28T00:25:03;33.42;;;19.42;;
34725;SDS011;20951;50.818;4.344;2024-02-28T00:27:31;29.52;;;19.63;;
34725;SDS011;20951;50.818;4.344;2024-02-28T00:29:58;30.88;;;20.25;;
34725;SDS011;20951;50.818;4.344;2024-02-28T00:32:24;30.75;;;19.80;;
34725;SDS011;20951;50.818;4.344;2024-02-28T00:34:50;32.33;;;19.88;;
34725;SDS011;20951;50.818;4.344;2024-02-28T00:37:15;29.13;;;19.73;;
34725;SDS011;20951;50.818;4.344;2024-02-28T00:39:42;27.10;;;19.38;;
34725;SDS011;20951;50.818;4.344;2024-02-28T00:42:09;30.25;;;19.38;;
34725;SDS011;20951;50.818;4.344;2024-02-28T00:44:36;26.77;;;18.90;;
34725;SDS011;20951;50.818;4.344;2024-02-28T00:47:01;29.95;;;18.58;;
34725;SDS011;20951;50.818;4.344;2024-02-28T00:49:27;26.10;;;19.08;;
34725;SDS011;20951;50.818;4.344;2024-02-28T00:51:53;29.63;;;20.02;;
34725;SDS011;20951;50.818;4.344;2024-02-28T00:54:18;28.50;;;18.73;;
34725;SDS011;20951;50.818;4.344;2024-02-28T00:56:46;29.50;;;19.88;;
34725;SDS011;20951;50.818;4.344;2024-02-28T00:59:12;30.73;;;19.80;;
34725;SDS011;20951;50.818;4.344;2024-02-28T01:01:38;31.17;;;20.30;;
34725;SDS011;20951;50.818;4.344;2024-02-28T01:04:05;27.35;;;18.88;;
34725;SDS011;20951;50.818;4.344;2024-02-28T01:06:31;26.17;;;17.95;;
34725;SDS011;20951;50.818;4.344;2024-02-28T01:08:56;25.38;;;17.95;;
34725;SDS011;20951;50.818;4.344;2024-02-28T01:11:22;25.13;;;16.83;;
34725;SDS011;20951;50.818;4.344;2024-02-28T01:13:48;28.67;;;17.90;;
34725;SDS011;20951;50.818;4.344;2024-02-28T01:16:14;28.83;;;19.05;;
34725;SDS011;20951;50.818;4.344;2024-02-28T01:18:40;27.73;;;18.15;;
34725;SDS011;20951;50.818;4.344;2024-02-28T01:21:07;28.92;;;17.77;;
34725;SDS011;20951;50.818;4.344;2024-02-28T01:23:32;27.35;;;17.52;;
34725;SDS011;20951;50.818;4.344;2024-02-28T01:25:58;25.85;;;16.98;;
34725;SDS011;20951;50.818;4.344;2024-02-28T01:28:24;23.73;;;16.63;;
34725;SDS011;20951;50.818;4.344;2024-02-28T01:30:49;23.83;;;16.02;;
34725;SDS011;20951;50.818;4.344;2024-02-28T01:33:15;23.42;;;15.05;;
34725;SDS011;20951;50.818;4.344;2024-02-28T01:35:41;24.95;;;15.30;;
34725;SDS011;20951;50.818;4.344;2024-02-28T01:38:06;21.02;;;14.68;;
34725;SDS011;20951;50.818;4.344;2024-02-28T01:40:32;23.08;;;15.73;;
34725;SDS011;20951;50.818;4.344;2024-02-28T01:43:07;24.35;;;15.60;;
34725;SDS011;20951;50.818;4.344;2024-02-28T01:45:33;22.70;;;15.40;;
34725;SDS011;20951;50.818;4.344;2024-02-28T01:47:59;22.25;;;15.10;;
34725;SDS011;20951;50.818;4.344;2024-02-28T01:50:25;23.77;;;14.80;;
34725;SDS011;20951;50.818;4.344;2024-02-28T01:52:51;23.13;;;14.45;;
34725;SDS011;20951;50.818;4.344;2024-02-28T01:55:17;21.17;;;13.57;;
34725;SDS011;20951;50.818;4.344;2024-02-28T01:57:43;21.33;;;13.48;;
34725;SDS011;20951;50.818;4.344;2024-02-28T02:00:09;19.42;;;13.10;;
34725;SDS011;20951;50.818;4.344;2024-02-28T02:02:37;19.40;;;12.40;;
34725;SDS011;20951;50.818;4.344;2024-02-28T02:05:03;24.38;;;12.32;;
34725;SDS011;20951;50.818;4.344;2024-02-28T02:07:29;22.67;;;13.30;;
34725;SDS011;20951;50.818;4.344;2024-02-28T02:09:56;21.08;;;13.65;;
34725;SDS011;20951;50.818;4.344;2024-02-28T02:12:23;23.70;;;14.23;;
34725;SDS011;20951;50.818;4.344;2024-02-28T02:14:49;26.92;;;14.68;;
34725;SDS011;20951;50.818;4.344;2024-02-28T02:17:15;23.92;;;15.32;;
34725;SDS011;20951;50.818;4.344;2024-02-28T02:19:41;22.08;;;15.65;;
34725;SDS011;20951;50.818;4.344;2024-02-28T02:22:08;28.08;;;17.00;;
34725;SDS011;20951;50.818;4.344;2024-02-28T02:24:34;25.73;;;16.25;;
34725;SDS011;20951;50.818;4.344;2024-02-28T02:27:00;25.85;;;17.20;;
34725;SDS011;20951;50.818;4.344;2024-02-28T02:29:29;26.75;;;17.05;;
34725;SDS011;20951;50.818;4.344;2024-02-28T02:31:55;25.83;;;17.27;;
34725;SDS011;20951;50.818;4.344;2024-02-28T02:34:21;26.33;;;17.23;;
34725;SDS011;20951;50.818;4.344;2024-02-28T02:36:47;29.80;;;16.55;;
34725;SDS011;20951;50.818;4.344;2024-02-28T02:39:13;24.52;;;17.10;;
34725;SDS011;20951;50.818;4.344;2024-02-28T02:41:38;28.40;;;17.85;;
34725;SDS011;20951;50.818;4.344;2024-02-28T02:44:05;29.55;;;17.83;;
34725;SDS011;20951;50.818;4.344;2024-02-28T02:46:32;27.25;;;17.38;;
34725;SDS011;20951;50.818;4.344;2024-02-28T02:48:58;27.50;;;18.52;;
34725;SDS011;20951;50.818;4.344;2024-02-28T02:51:24;26.40;;;18.20;;
34725;SDS011;20951;50.818;4.344;2024-02-28T02:53:50;29.67;;;18.17;;
34725;SDS011;20951;50.818;4.344;2024-02-28T02:56:16;26.88;;;18.27;;
34725;SDS011;20951;50.818;4.344;2024-02-28T02:58:42;27.48;;;18.08;;
34725;SDS011;20951;50.818;4.344;2024-02-28T03:01:08;30.33;;;18.83;;
34725;SDS011;20951;50.818;4.344;2024-02-28T03:03:34;31.38;;;18.27;;
34725;SDS011;20951;50.818;4.344;2024-02-28T03:06:00;29.27;;;18.75;;
34725;SDS011;20951;50.818;4.344;2024-02-28T03:08:25;29.08;;;18.73;;
34725;SDS011;20951;50.818;4.344;2024-02-28T03:10:51;29.65;;;19.35;;
34725;SDS011;20951;50.818;4.344;2024-02-28T03:13:17;29.92;;;18.40;;
34725;SDS011;20951;50.818;4.344;2024-02-28T03:15:43;33.08;;;19.42;;
34725;SDS011;20951;50.818;4.344;2024-02-28T03:18:09;29.55;;;18.60;;
34725;SDS011;20951;50.818;4.344;2024-02-28T03:20:35;35.15;;;19.02;;
34725;SDS011;20951;50.818;4.344;2024-02-28T03:23:03;31.98;;;18.80;;
34725;SDS011;20951;50.818;4.344;2024-02-28T03:25:31;32.00;;;18.17;;
34725;SDS011;20951;50.818;4.344;2024-02-28T03:27:57;25.33;;;18.48;;
34725;SDS011;20951;50.818;4.344;2024-02-28T03:30:24;29.48;;;18.40;;
34725;SDS011;20951;50.818;4.344;2024-02-28T03:32:50;30.67;;;17.33;;
34725;SDS011;20951;50.818;4.344;2024-02-28T03:35:16;30.60;;;18.83;;
34725;SDS011;20951;50.818;4.344;2024-02-28T03:37:42;32.42;;;18.92;;
34725;SDS011;20951;50.818;4.344;2024-02-28T03:40:07;28.90;;;18.23;;
34725;SDS011;20951;50.818;4.344;2024-02-28T03:42:33;28.45;;;19.10;;
34725;SDS011;20951;50.818;4.344;2024-02-28T03:44:59;30.90;;;17.92;;
34725;SDS011;20951;50.818;4.344;2024-02-28T03:47:25;29.10;;;18.30;;
34725;SDS011;20951;50.818;4.344;2024-02-28T03:49:51;30.92;;;18.65;;
34725;SDS011;20951;50.818;4.344;2024-02-28T03:52:17;28.65;;;18.60;;
34725;SDS011;20951;50.818;4.344;2024-02-28T03:54:43;34.00;;;19.83;;
34725;SDS011;20951;50.818;4.344;2024-02-28T03:57:09;30.73;;;18.45;;
34725;SDS011;20951;50.818;4.344;2024-02-28T03:59:35;27.13;;;17.73;;
34725;SDS011;20951;50.818;4.344;2024-02-28T04:02:01;29.92;;;18.38;;
34725;SDS011;20951;50.818;4.344;2024-02-28T04:04:27;29.48;;;18.92;;
34725;SDS011;20951;50.818;4.344;2024-02-28T04:06:53;25.48;;;18.25;;
34725;SDS011;20951;50.818;4.344;2024-02-28T04:09:18;25.90;;;17.38;;
34725;SDS011;20951;50.818;4.344;2024-02-28T04:11:45;26.50;;;18.10;;
34725;SDS011;20951;50.818;4.344;2024-02-28T04:14:11;25.45;;;17.95;;
34725;SDS011;20951;50.818;4.344;2024-02-28T04:16:43;33.58;;;18.35;;
34725;SDS011;20951;50.818;4.344;2024-02-28T04:19:10;32.55;;;17.45;;
34725;SDS011;20951;50.818;4.344;2024-02-28T04:21:36;26.75;;;16.30;;
34725;SDS011;20951;50.818;4.344;2024-02-28T04:24:02;26.83;;;17.00;;
34725;SDS011;20951;50.818;4.344;2024-02-28T04:26:28;29.88;;;19.15;;
34725;SDS011;20951;50.818;4.344;2024-02-28T04:28:54;27.45;;;17.27;;
34725;SDS011;20951;50.818;4.344;2024-02-28T04:31:21;28.25;;;16.48;;
34725;SDS011;20951;50.818;4.344;2024-02-28T04:33:47;28.50;;;16.27;;
34725;SDS011;20951;50.818;4.344;2024-02-28T04:36:12;30.77;;;17.30;;
34725;SDS011;20951;50.818;4.344;2024-02-28T04:38:39;24.98;;;16.75;;
34725;SDS011;20951;50.818;4.344;2024-02-28T04:41:05;31.63;;;18.05;;
34725;SDS011;20951;50.818;4.344;2024-02-28T04:43:31;30.30;;;16.50;;
34725;SDS011;20951;50.818;4.344;2024-02-28T04:45:57;27.30;;;17.15;;
34725;SDS011;20951;50.818;4.344;2024-02-28T04:48:22;30.35;;;17.10;;
34725;SDS011;20951;50.818;4.344;2024-02-28T04:50:48;26.92;;;16.90;;
34725;SDS011;20951;50.818;4.344;2024-02-28T04:53:14;30.10;;;17.13;;
34725;SDS011;20951;50.818;4.344;2024-02-28T04:55:39;27.98;;;16.92;;
34725;SDS011;20951;50.818;4.344;2024-02-28T04:58:05;26.02;;;16.35;;
34725;SDS011;20951;50.818;4.344;2024-02-28T05:00:31;32.08;;;17.70;;
34725;SDS011;20951;50.818;4.344;2024-02-28T05:02:57;28.73;;;16.90;;
34725;SDS011;20951;50.818;4.344;2024-02-28T05:05:23;28.77;;;17.67;;
34725;SDS011;20951;50.818;4.344;2024-02-28T05:07:49;26.40;;;17.52;;
34725;SDS011;20951;50.818;4.344;2024-02-28T05:10:14;28.20;;;17.42;;
34725;SDS011;20951;50.818;4.344;2024-02-28T05:12:40;27.73;;;17.70;;
34725;SDS011;20951;50.818;4.344;2024-02-28T05:15:06;30.15;;;18.15;;
34725;SDS011;20951;50.818;4.344;2024-02-28T05:17:33;30.85;;;18.60;;
34725;SDS011;20951;50.818;4.344;2024-02-28T05:19:59;31.45;;;18.30;;
34725;SDS011;20951;50.818;4.344;2024-02-28T05:22:24;28.55;;;18.27;;
34725;SDS011;20951;50.818;4.344;2024-02-28T05:24:50;31.00;;;18.98;;
34725;SDS011;20951;50.818;4.344;2024-02-28T05:27:17;32.60;;;18.33;;
34725;SDS011;20951;50.818;4.344;2024-02-28T05:29:42;29.70;;;18.48;;
34725;SDS011;20951;50.818;4.344;2024-02-28T05:32:08;30.58;;;18.98;;
34725;SDS011;20951;50.818;4.344;2024-02-28T05:34:34;32.35;;;19.65;;
34725;SDS011;20951;50.818;4.344;2024-02-28T05:37:00;30.00;;;18.48;;
34725;SDS011;20951;50.818;4.344;2024-02-28T05:39:26;29.65;;;18.25;;
34725;SDS011;20951;50.818;4.344;2024-02-28T05:41:56;31.75;;;18.58;;
34725;SDS011;20951;50.818;4.344;2024-02-28T05:44:22;31.70;;;18.95;;
34725;SDS011;20951;50.818;4.344;2024-02-28T05:46:49;31.50;;;19.45;;
34725;SDS011;20951;50.818;4.344;2024-02-28T05:49:15;32.25;;;19.83;;
34725;SDS011;20951;50.818;4.344;2024-02-28T05:51:41;31.20;;;19.27;;
34725;SDS011;20951;50.818;4.344;2024-02-28T05:54:06;33.55;;;20.08;;
34725;SDS011;20951;50.818;4.344;2024-02-28T05:56:32;34.78;;;19.90;;
34725;SDS011;20951;50.818;4.344;2024-02-28T05:58:58;31.50;;;19.67;;
34725;SDS011;20951;50.818;4.344;2024-02-28T06:01:24;34.72;;;20.30;;
34725;SDS011;20951;50.818;4.344;2024-02-28T06:03:49;33.25;;;20.42;;
34725;SDS011;20951;50.818;4.344;2024-02-28T06:06:18;33.05;;;20.33;;
34725;SDS011;20951;50.818;4.344;2024-02-28T06:08:44;31.55;;;20.27;;
34725;SDS011;20951;50.818;4.344;2024-02-28T06:11:10;32.70;;;19.27;;
34725;SDS011;20951;50.818;4.344;2024-02-28T06:13:36;32.45;;;20.20;;
34725;SDS011;20951;50.818;4.344;2024-02-28T06:16:02;37.47;;;21.00;;
34725;SDS011;20951;50.818;4.344;2024-02-28T06:18:28;37.20;;;19.90;;
34725;SDS011;20951;50.818;4.344;2024-02-28T06:20:58;35.22;;;20.02;;
34725;SDS011;20951;50.818;4.344;2024-02-28T06:23:24;37.47;;;21.60;;
34725;SDS011;20951;50.818;4.344;2024-02-28T06:25:50;33.97;;;20.65;;
34725;SDS011;20951;50.818;4.344;2024-02-28T06:28:16;33.42;;;19.90;;
34725;SDS011;20951;50.818;4.344;2024-02-28T06:30:43;35.58;;;20.23;;
34725;SDS011;20951;50.818;4.344;2024-02-28T06:33:12;34.92;;;20.38;;
34725;SDS011;20951;50.818;4.344;2024-02-28T06:35:38;31.92;;;19.83;;
34725;SDS011;20951;50.818;4.344;2024-02-28T06:38:04;39.67;;;20.65;;
34725;SDS011;20951;50.818;4.344;2024-02-28T06:40:30;33.58;;;19.38;;
34725;SDS011;20951;50.818;4.344;2024-02-28T06:42:56;34.08;;;20.13;;
34725;SDS011;20951;50.818;4.344;2024-02-28T06:45:21;39.30;;;19.65;;
34725;SDS011;20951;50.818;4.344;2024-02-28T06:47:47;34.40;;;19.02;;
34725;SDS011;20951;50.818;4.344;2024-02-28T06:50:13;31.50;;;19.55;;
34725;SDS011;20951;50.818;4.344;2024-02-28T06:52:40;33.00;;;20.00;;
34725;SDS011;20951;50.818;4.344;2024-02-28T06:55:06;36.97;;;19.73;;
34725;SDS011;20951;50.818;4.344;2024-02-28T06:57:36;30.95;;;19.45;;
34725;SDS011;20951;50.818;4.344;2024-02-28T07:00:02;40.75;;;19.65;;
34725;SDS011;20951;50.818;4.344;2024-02-28T07:02:29;35.10;;;18.90;;
34725;SDS011;20951;50.818;4.344;2024-02-28T07:04:55;38.80;;;19.77;;
34725;SDS011;20951;50.818;4.344;2024-02-28T07:07:21;31.65;;;19.10;;
34725;SDS011;20951;50.818;4.344;2024-02-28T07:09:47;29.38;;;18.88;;
34725;SDS011;20951;50.818;4.344;2024-02-28T07:12:12;39.42;;;20.00;;
34725;SDS011;20951;50.818;4.344;2024-02-28T07:14:41;34.15;;;19.40;;
34725;SDS011;20951;50.818;4.344;2024-02-28T07:17:07;36.00;;;20.75;;
34725;SDS011;20951;50.818;4.344;2024-02-28T07:19:33;34.97;;;19.65;;
34725;SDS011;20951;50.818;4.344;2024-02-28T07:21:58;38.58;;;19.85;;
34725;SDS011;20951;50.818;4.344;2024-02-28T07:24:24;37.60;;;20.15;;
34725;SDS011;20951;50.818;4.344;2024-02-28T07:26:50;38.53;;;19.73;;
34725;SDS011;20951;50.818;4.344;2024-02-28T07:29:16;34.75;;;19.48;;
34725;SDS011;20951;50.818;4.344;2024-02-28T07:31:42;34.53;;;19.73;;
34725;SDS011;20951;50.818;4.344;2024-02-28T07:34:08;34.65;;;19.00;;
34725;SDS011;20951;50.818;4.344;2024-02-28T07:36:34;36.38;;;19.67;;
34725;SDS011;20951;50.818;4.344;2024-02-28T07:39:00;37.50;;;20.23;;
34725;SDS011;20951;50.818;4.344;2024-02-28T07:41:26;32.17;;;19.20;;
34725;SDS011;20951;50.818;4.344;2024-02-28T07:43:53;34.92;;;19.73;;
34725;SDS011;20951;50.818;4.344;2024-02-28T07:46:18;35.00;;;18.92;;
34725;SDS011;20951;50.818;4.344;2024-02-28T07:48:44;35.92;;;19.45;;
34725;SDS011;20951;50.818;4.344;2024-02-28T07:51:11;36.33;;;20.27;;
34725;SDS011;20951;50.818;4.344;2024-02-28T07:53:37;37.30;;;19.23;;
34725;SDS011;20951;50.818;4.344;2024-02-28T07:56:03;35.97;;;19.63;;
34725;SDS011;20951;50.818;4.344;2024-02-28T07:58:28;38.75;;;19.80;;
34725;SDS011;20951;50.818;4.344;2024-02-28T08:00:54;33.83;;;18.80;;
34725;SDS011;20951;50.818;4.344;2024-02-28T08:03:20;33.88;;;19.30;;
34725;SDS011;20951;50.818;4.344;2024-02-28T08:05:46;35.40;;;19.45;;
34725;SDS011;20951;50.818;4.344;2024-02-28T08:08:13;35.13;;;18.35;;
34725;SDS011;20951;50.818;4.344;2024-02-28T08:10:39;33.78;;;19.00;;
34725;SDS011;20951;50.818;4.344;2024-02-28T08:13:06;35.50;;;19.58;;
34725;SDS011;20951;50.818;4.344;2024-02-28T08:15:35;34.63;;;19.08;;
34725;SDS011;20951;50.818;4.344;2024-02-28T08:18:00;38.97;;;19.52;;
34725;SDS011;20951;50.818;4.344;2024-02-28T08:20:26;34.70;;;19.83;;
34725;SDS011;20951;50.818;4.344;2024-02-28T08:22:52;36.72;;;20.08;;
34725;SDS011;20951;50.818;4.344;2024-02-28T08:25:18;34.45;;;20.50;;
34725;SDS011;20951;50.818;4.344;2024-02-28T08:27:44;32.75;;;18.42;;
34725;SDS011;20951;50.818;4.344;2024-02-28T08:30:09;37.60;;;20.90;;
34725;SDS011;20951;50.818;4.344;2024-02-28T08:32:35;36.53;;;20.85;;
34725;SDS011;20951;50.818;4.344;2024-02-28T08:35:01;38.13;;;20.58;;
34725;SDS011;20951;50.818;4.344;2024-02-28T08:37:27;40.92;;;21.45;;
34725;SDS011;20951;50.818;4.344;2024-02-28T08:39:53;36.08;;;19.95;;
34725;SDS011;20951;50.818;4.344;2024-02-28T08:42:23;36.30;;;20.33;;
34725;SDS011;20951;50.818;4.344;2024-02-28T08:44:52;36.03;;;18.75;;
34725;SDS011;20951;50.818;4.344;2024-02-28T08:47:22;36.10;;;18.90;;
34725;SDS011;20951;50.818;4.344;2024-02-28T08:49:49;40.92;;;19.95;;
34725;SDS011;20951;50.818;4.344;2024-02-28T08:52:14;40.60;;;19.88;;
34725;SDS011;20951;50.818;4.344;2024-02-28T08:54:40;34.58;;;19.58;;
34725;SDS011;20951;50.818;4.344;2024-02-28T08:57:06;36.45;;;19.38;;
34725;SDS011;20951;50.818;4.344;2024-02-28T08:59:32;40.67;;;19.83;;
34725;SDS011;20951;50.818;4.344;2024-02-28T09:01:58;39.60;;;19.55;;
34725;SDS011;20951;50.818;4.344;2024-02-28T09:04:24;43.08;;;20.02;;
34725;SDS011;20951;50.818;4.344;2024-02-28T09:06:50;36.65;;;19.10;;
34725;SDS011;20951;50.818;4.344;2024-02-28T09:09:15;39.42;;;18.90;;
34725;SDS011;20951;50.818;4.344;2024-02-28T09:11:42;37.63;;;19.50;;
34725;SDS011;20951;50.818;4.344;2024-02-28T09:14:07;35.92;;;19.27;;
34725;SDS011;20951;50.818;4.344;2024-02-28T09:16:33;42.72;;;19.75;;
34725;SDS011;20951;50.818;4.344;2024-02-28T09:18:59;37.05;;;18.92;;
34725;SDS011;20951;50.818;4.344;2024-02-28T09:21:24;33.95;;;17.67;;
34725;SDS011;20951;50.818;4.344;2024-02-28T09:23:50;40.45;;;19.70;;
34725;SDS011;20951;50.818;4.344;2024-02-28T09:26:16;42.88;;;17.92;;
34725;SDS011;20951;50.818;4.344;2024-02-28T09:28:42;43.28;;;18.08;;
34725;SDS011;20951;50.818;4.344;2024-02-28T09:31:08;40.60;;;18.10;;
34725;SDS011;20951;50.818;4.344;2024-02-28T09:33:34;37.97;;;17.10;;
34725;SDS011;20951;50.818;4.344;2024-02-28T09:36:01;38.15;;;17.17;;
34725;SDS011;20951;50.818;4.344;2024-02-28T09:38:29;43.22;;;18.60;;
34725;SDS011;20951;50.818;4.344;2024-02-28T09:40:57;37.42;;;16.30;;
34725;SDS011;20951;50.818;4.344;2024-02-28T09:45:52;34.03;;;17.38;;
34725;SDS011;20951;50.818;4.344;2024-02-28T09:48:20;34.60;;;16.63;;
34725;SDS011;20951;50.818;4.344;2024-02-28T09:50:46;35.83;;;16.88;;
34725;SDS011;20951;50.818;4.344;2024-02-28T09:53:12;33.08;;;16.23;;
34725;SDS011;20951;50.818;4.344;2024-02-28T09:55:38;40.05;;;17.50;;
34725;SDS011;20951;50.818;4.344;2024-02-28T09:58:03;37.35;;;16.98;;
34725;SDS011;20951;50.818;4.344;2024-02-28T10:00:30;38.38;;;17.00;;
34725;SDS011;20951;50.818;4.344;2024-02-28T10:02:57;37.05;;;16.88;;
34725;SDS011;20951;50.818;4.344;2024-02-28T10:05:23;36.97;;;17.60;;
34725;SDS011;20951;50.818;4.344;2024-02-28T10:07:52;31.30;;;16.40;;
34725;SDS011;20951;50.818;4.344;2024-02-28T10:10:18;36.47;;;17.77;;
34725;SDS011;20951;50.818;4.344;2024-02-28T10:12:44;33.70;;;17.85;;
34725;SDS011;20951;50.818;4.344;2024-02-28T10:15:10;27.92;;;16.85;;
34725;SDS011;20951;50.818;4.344;2024-02-28T10:17:36;34.33;;;18.45;;
34725;SDS011;20951;50.818;4.344;2024-02-28T10:20:02;32.03;;;17.67;;
34725;SDS011;20951;50.818;4.344;2024-02-28T10:22:37;31.52;;;17.10;;
34725;SDS011;20951;50.818;4.344;2024-02-28T10:25:03;31.70;;;17.83;;
34725;SDS011;20951;50.818;4.344;2024-02-28T10:27:32;33.88;;;16.63;;
34725;SDS011;20951;50.818;4.344;2024-02-28T10:29:59;27.45;;;16.42;;
34725;SDS011;20951;50.818;4.344;2024-02-28T10:32:29;24.67;;;14.80;;
34725;SDS011;20951;50.818;4.344;2024-02-28T10:34:56;25.48;;;14.60;;
34725;SDS011;20951;50.818;4.344;2024-02-28T10:37:24;23.90;;;15.10;;
34725;SDS011;20951;50.818;4.344;2024-02-28T10:39:51;18.23;;;12.57;;
34725;SDS011;20951;50.818;4.344;2024-02-28T10:42:18;25.88;;;13.93;;
34725;SDS011;20951;50.818;4.344;2024-02-28T10:44:47;26.50;;;13.98;;
34725;SDS011;20951;50.818;4.344;2024-02-28T10:47:17;22.58;;;13.93;;
34725;SDS011;20951;50.818;4.344;2024-02-28T10:49:43;21.20;;;14.00;;
34725;SDS011;20951;50.818;4.344;2024-02-28T10:52:10;23.17;;;13.30;;
34725;SDS011;20951;50.818;4.344;2024-02-28T10:54:39;23.23;;;13.50;;
34725;SDS011;20951;50.818;4.344;2024-02-28T10:57:10;22.05;;;13.48;;
34725;SDS011;20951;50.818;4.344;2024-02-28T10:59:37;22.67;;;12.80;;
34725;SDS011;20951;50.818;4.344;2024-02-28T11:02:04;23.58;;;12.98;;
34725;SDS011;20951;50.818;4.344;2024-02-28T11:04:31;22.80;;;12.60;;
34725;SDS011;20951;50.818;4.344;2024-02-28T11:06:57;19.52;;;11.70;;
34725;SDS011;20951;50.818;4.344;2024-02-28T11:09:23;21.15;;;12.57;;
34725;SDS011;20951;50.818;4.344;2024-02-28T11:11:54;20.83;;;12.25;;
34725;SDS011;20951;50.818;4.344;2024-02-28T11:14:21;20.50;;;11.77;;
34725;SDS011;20951;50.818;4.344;2024-02-28T11:16:59;19.42;;;11.95;;
34725;SDS011;20951;50.818;4.344;2024-02-28T11:19:27;20.75;;;11.27;;
34725;SDS011;20951;50.818;4.344;2024-02-28T11:21:55;23.45;;;11.65;;
34725;SDS011;20951;50.818;4.344;2024-02-28T11:24:28;18.45;;;10.60;;
34725;SDS011;20951;50.818;4.344;2024-02-28T11:26:56;16.58;;;9.82;;
34725;SDS011;20951;50.818;4.344;2024-02-28T11:29:28;17.55;;;10.50;;
34725;SDS011;20951;50.818;4.344;2024-02-28T11:31:54;18.15;;;9.32;;
34725;SDS011;20951;50.818;4.344;2024-02-28T11:34:20;17.42;;;9.00;;
34725;SDS011;20951;50.818;4.344;2024-02-28T11:36:47;18.27;;;9.82;;
34725;SDS011;20951;50.818;4.344;2024-02-28T11:39:14;14.82;;;7.85;;
34725;SDS011;20951;50.818;4.344;2024-02-28T11:41:40;12.73;;;6.65;;
34725;SDS011;20951;50.818;4.344;2024-02-28T11:44:06;12.35;;;6.53;;
34725;SDS011;20951;50.818;4.344;2024-02-28T11:46:32;11.02;;;6.43;;
34725;SDS011;20951;50.818;4.344;2024-02-28T11:48:58;11.00;;;6.20;;
34725;SDS011;20951;50.818;4.344;2024-02-28T11:51:26;11.40;;;6.10;;
34725;SDS011;20951;50.818;4.344;2024-02-28T11:53:52;10.93;;;6.18;;
34725;SDS011;20951;50.818;4.344;2024-02-28T11:56:18;12.55;;;6.43;;
34725;SDS011;20951;50.818;4.344;2024-02-28T11:58:50;8.40;;;5.60;;
34725;SDS011;20951;50.818;4.344;2024-02-28T12:01:16;12.18;;;7.20;;
34725;SDS011;20951;50.818;4.344;2024-02-28T12:03:44;11.32;;;6.95;;
34725;SDS011;20951;50.818;4.344;2024-02-28T12:06:11;11.25;;;6.55;;
34725;SDS011;20951;50.818;4.344;2024-02-28T12:08:37;11.20;;;6.72;;
34725;SDS011;20951;50.818;4.344;2024-02-28T12:11:06;11.65;;;6.93;;
34725;SDS011;20951;50.818;4.344;2024-02-28T12:13:33;12.98;;;7.13;;
34725;SDS011;20951;50.818;4.344;2024-02-28T12:16:00;11.82;;;7.00;;
34725;SDS011;20951;50.818;4.344;2024-02-28T12:18:26;11.73;;;6.80;;
34725;SDS011;20951;50.818;4.344;2024-02-28T12:20:53;10.48;;;6.68;;
34725;SDS011;20951;50.818;4.344;2024-02-28T12:23:19;12.82;;;6.43;;
34725;SDS011;20951;50.818;4.344;2024-02-28T12:25:45;10.95;;;6.55;;
34725;SDS011;20951;50.818;4.344;2024-02-28T12:28:11;11.80;;;6.55;;
34725;SDS011;20951;50.818;4.344;2024-02-28T12:30:41;11.10;;;6.25;;
34725;SDS011;20951;50.818;4.344;2024-02-28T12:33:07;11.00;;;6.38;;
34725;SDS011;20951;50.818;4.344;2024-02-28T12:35:36;10.77;;;6.38;;
34725;SDS011;20951;50.818;4.344;2024-02-28T12:38:02;12.68;;;6.53;;
34725;SDS011;20951;50.818;4.344;2024-02-28T12:40:28;17.92;;;7.60;;
34725;SDS011;20951;50.818;4.344;2024-02-28T12:42:54;12.63;;;7.25;;
34725;SDS011;20951;50.818;4.344;2024-02-28T12:45:19;10.73;;;6.85;;
34725;SDS011;20951;50.818;4.344;2024-02-28T12:47:45;11.88;;;8.35;;
34725;SDS011;20951;50.818;4.344;2024-02-28T12:50:11;12.65;;;7.15;;
34725;SDS011;20951;50.818;4.344;2024-02-28T12:52:37;12.48;;;7.55;;
34725;SDS011;20951;50.818;4.344;2024-02-28T12:55:02;11.35;;;6.60;;
34725;SDS011;20951;50.818;4.344;2024-02-28T12:57:28;11.15;;;6.50;;
34725;SDS011;20951;50.818;4.344;2024-02-28T12:59:54;12.30;;;6.68;;
34725;SDS011;20951;50.818;4.344;2024-02-28T13:02:21;11.80;;;7.15;;
34725;SDS011;20951;50.818;4.344;2024-02-28T13:04:47;13.57;;;7.15;;
34725;SDS011;20951;50.818;4.344;2024-02-28T13:07:14;15.45;;;6.97;;
34725;SDS011;20951;50.818;4.344;2024-02-28T13:09:40;11.77;;;6.63;;
34725;SDS011;20951;50.818;4.344;2024-02-28T13:12:07;11.75;;;6.95;;
34725;SDS011;20951;50.818;4.344;2024-02-28T13:14:33;10.73;;;6.55;;
34725;SDS011;20951;50.818;4.344;2024-02-28T13:16:59;10.18;;;7.20;;
34725;SDS011;20951;50.818;4.344;2024-02-28T13:19:25;13.98;;;7.32;;
34725;SDS011;20951;50.818;4.344;2024-02-28T13:21:50;11.05;;;7.10;;
34725;SDS011;20951;50.818;4.344;2024-02-28T13:24:16;10.70;;;7.35;;
34725;SDS011;20951;50.818;4.344;2024-02-28T13:26:42;11.55;;;6.78;;
34725;SDS011;20951;50.818;4.344;2024-02-28T13:29:07;9.93;;;6.40;;
34725;SDS011;20951;50.818;4.344;2024-02-28T13:31:34;10.30;;;6.22;;
34725;SDS011;20951;50.818;4.344;2024-02-28T13:34:00;11.32;;;6.63;;
34725;SDS011;20951;50.818;4.344;2024-02-28T13:36:28;9.05;;;6.13;;
34725;SDS011;20951;50.818;4.344;2024-02-28T13:38:57;9.80;;;6.13;;
34725;SDS011;20951;50.818;4.344;2024-02-28T13:41:23;10.57;;;5.82;;
34725;SDS011;20951;50.818;4.344;2024-02-28T13:43:49;13.65;;;7.28;;
34725;SDS011;20951;50.818;4.344;2024-02-28T13:46:14;15.65;;;8.05;;
34725;SDS011;20951;50.818;4.344;2024-02-28T13:48:40;13.95;;;7.32;;
34725;SDS011;20951;50.818;4.344;2024-02-28T13:51:06;12.43;;;8.05;;
34725;SDS011;20951;50.818;4.344;2024-02-28T13:53:32;14.25;;;8.02;;
34725;SDS011;20951;50.818;4.344;2024-02-28T13:55:57;13.73;;;7.57;;
34725;SDS011;20951;50.818;4.344;2024-02-28T13:58:23;15.05;;;7.72;;
34725;SDS011;20951;50.818;4.344;2024-02-28T14:00:49;11.75;;;6.75;;
34725;SDS011;20951;50.818;4.344;2024-02-28T14:03:15;9.48;;;6.60;;
34725;SDS011;20951;50.818;4.344;2024-02-28T14:05:40;9.40;;;6.75;;
34725;SDS011;20951;50.818;4.344;2024-02-28T14:08:06;7.90;;;6.22;;
34725;SDS011;20951;50.818;4.344;2024-02-28T14:10:34;12.80;;;6.43;;
34725;SDS011;20951;50.818;4.344;2024-02-28T14:13:00;13.77;;;7.03;;
34725;SDS011;20951;50.818;4.344;2024-02-28T14:15:26;12.48;;;6.28;;
34725;SDS011;20951;50.818;4.344;2024-02-28T14:17:51;11.85;;;6.85;;
34725;SDS011;20951;50.818;4.344;2024-02-28T14:20:18;12.77;;;6.60;;